Cemtex Fortune — 9V3578 — position and weather

sailwx.info

Track history (hours):
 
Tides and Currents Weather Stations Pressure Air Temp Water Temp Dewpoint Dewpoint Depression Visibility Wind Speed Wind Dir Waves Ship Positions

Cemtex Fortune

Last reported at 2018-May-26 00:34 UTC. Time now 2018-May-26 04:27 UTC.
Position N 31°19' E 121°46'.

Length 228 m; draft 7.5 m.

Type: Cargo ship. MMSI: 563295000.

Date/timePositionNaut miles runAvg speedWind from/ knotsBaromVisibWave heightAir tempDewpointWater temp
2018-May-26 00:34N 31°19' E 121°46'113.2
2018-May-26 00:29N 31°18' E 121°47'713.7
2018-May-26 00:00N 31°16' E 121°54'714.0
2018-May-25 23:29N 31°15' E 122°02'612.0
2018-May-25 22:58N 31°12' E 122°09'610.9
2018-May-25 22:25N 31°09' E 122°14'384 9.0
2018-May-24 03:34N 37°33' E 122°21'312.0
2018-May-24 03:21N 37°31' E 122°19'3 9.7
2018-May-24 03:00N 37°30' E 122°15'4 7.0
2018-May-24 02:29N 37°27' E 122°11'0 0.1
2018-May-24 01:59N 37°27' E 122°11'0 0.0
2018-May-24 01:17N 37°27' E 122°11'0 0.0
2018-May-24 00:35N 37°27' E 122°11'0 0.0
2018-May-24 00:23N 37°27' E 122°11'0 0.0
2018-May-23 23:59N 37°27' E 122°11'0 0.0
2018-May-23 23:29N 37°27' E 122°11'0 0.0
2018-May-23 22:59N 37°27' E 122°11'0 0.0
2018-May-23 22:29N 37°27' E 122°11'0 0.0
2018-May-23 21:59N 37°27' E 122°11'0 0.0
2018-May-23 21:26N 37°27' E 122°11'0 0.0
2018-May-23 20:59N 37°27' E 122°11'0 0.0
2018-May-23 20:29N 37°27' E 122°11'0 0.0
2018-May-23 19:59N 37°27' E 122°11'0 0.0
2018-May-23 19:26N 37°27' E 122°11'0 0.0
2018-May-23 18:47N 37°27' E 122°11'0 0.0
2018-May-23 18:29N 37°27' E 122°11'0 0.0
2018-May-23 15:35N 37°27' E 122°11'0 0.0
2018-May-23 15:08N 37°27' E 122°11'0 0.0
2018-May-23 14:59N 37°27' E 122°11'0 0.0
2018-May-23 14:29N 37°27' E 122°11'0 0.0
2018-May-23 13:47N 37°27' E 122°11'0 0.0
2018-May-23 13:20N 37°27' E 122°11'0 0.0
2018-May-23 12:56N 37°27' E 122°11'0 0.0
2018-May-23 12:26N 37°27' E 122°11'0 0.0
2018-May-23 11:14N 37°27' E 122°11'0 0.0
2018-May-23 10:47N 37°27' E 122°11'0 0.0
2018-May-23 09:59N 37°27' E 122°11'0 0.0
2018-May-23 09:29N 37°27' E 122°11'0 0.0
2018-May-23 08:56N 37°27' E 122°11'0 0.0
2018-May-23 08:29N 37°27' E 122°11'0 0.0
2018-May-23 07:59N 37°27' E 122°11'0 0.0
2018-May-23 07:29N 37°27' E 122°11'0 0.0
2018-May-23 06:56N 37°27' E 122°11'0 0.0
2018-May-23 00:38N 37°27' E 122°11'0 0.0
2018-May-23 00:29N 37°27' E 122°11'0 0.0
2018-May-22 23:08N 37°27' E 122°11'0 0.0
2018-May-22 22:56N 37°27' E 122°11'0 0.0
2018-May-22 22:26N 37°27' E 122°11'0 0.0
2018-May-22 21:50N 37°27' E 122°11'0 0.0
2018-May-22 21:08N 37°27' E 122°11'0 0.0
2018-May-22 20:44N 37°27' E 122°11'0 0.0
2018-May-22 18:50N 37°27' E 122°11'0 0.0
2018-May-22 18:29N 37°27' E 122°11'0 0.0
2018-May-22 17:56N 37°27' E 122°11'0 0.0
2018-May-22 17:29N 37°27' E 122°11'0 0.0
2018-May-22 16:59N 37°27' E 122°11'0 0.0
2018-May-22 16:17N 37°27' E 122°11'0 0.0
2018-May-22 15:44N 37°27' E 122°11'0 0.0
2018-May-22 12:02N 37°27' E 122°11'0 0.0
2018-May-22 11:56N 37°27' E 122°11'0 0.0
2018-May-22 10:50N 37°27' E 122°11'0 0.0
2018-May-22 10:29N 37°27' E 122°11'0 0.0
2018-May-22 09:56N 37°27' E 122°11'0 0.0
2018-May-22 09:26N 37°27' E 122°11'0 0.0
2018-May-22 08:50N 37°27' E 122°11'0 0.0
2018-May-22 08:20N 37°27' E 122°11'0 0.0
2018-May-22 07:56N 37°27' E 122°11'0 0.0
2018-May-22 07:26N 37°27' E 122°11'0 0.0
2018-May-22 06:47N 37°27' E 122°11'0 0.0
2018-May-22 06:26N 37°27' E 122°11'0 0.0
2018-May-22 05:32N 37°27' E 122°11'0 0.0
2018-May-22 05:20N 37°27' E 122°11'0 0.0
2018-May-22 04:56N 37°27' E 122°11'0 0.0
2018-May-22 04:26N 37°27' E 122°11'0 0.0
2018-May-22 03:56N 37°27' E 122°11'0 0.1
2018-May-22 03:30N 37°27' E 122°11'1 2.5
2018-May-22 02:58N 37°28' E 122°13'4 6.7
2018-May-22 02:24N 37°31' E 122°16'2 4.5
2018-May-22 01:54N 37°32' E 122°19'0 0.2
2018-May-22 01:29N 37°32' E 122°19'0 0.2
2018-May-22 00:56N 37°32' E 122°19'0 0.0
2018-May-21 21:14N 37°32' E 122°19'0 0.0
2018-May-21 20:23N 37°32' E 122°19'0 0.0
2018-May-21 19:59N 37°32' E 122°19'0 0.0
2018-May-21 19:11N 37°32' E 122°19'0 0.0
2018-May-21 18:56N 37°32' E 122°19'0 0.1
2018-May-21 18:23N 37°32' E 122°19'0 0.1
2018-May-21 17:59N 37°32' E 122°19'0 0.0
2018-May-21 08:53N 37°32' E 122°19'0 0.0
2018-May-21 04:05N 37°32' E 122°19'0 0.0
2018-May-21 03:44N 37°32' E 122°19'0 0.0
2018-May-21 03:29N 37°32' E 122°19'0 0.0
2018-May-21 02:56N 37°32' E 122°19'0 0.0
2018-May-21 02:23N 37°32' E 122°19'0 0.0
2018-May-21 01:08N 37°32' E 122°19'0 0.0
2018-May-21 00:50N 37°32' E 122°19'0 0.2
2018-May-21 00:17N 37°32' E 122°19'0 0.2
2018-May-20 23:59N 37°32' E 122°19'0 0.2
2018-May-20 23:23N 37°32' E 122°19'0 0.0
2018-May-20 22:56N 37°32' E 122°19'0 0.0
2018-May-20 22:26N 37°32' E 122°19'0 0.0
2018-May-20 21:59N 37°32' E 122°19'0 0.1
2018-May-20 21:23N 37°32' E 122°19'0 0.0
2018-May-20 20:56N 37°32' E 122°19'0 0.0
2018-May-20 19:05N 37°32' E 122°19'0 0.0
2018-May-20 18:59N 37°32' E 122°19'0 0.0
2018-May-20 18:29N 37°32' E 122°19'0 0.1
2018-May-20 17:59N 37°32' E 122°19'0 0.0
2018-May-20 17:23N 37°32' E 122°19'0 0.2
2018-May-20 16:59N 37°32' E 122°19'0 0.0
2018-May-20 09:47N 37°32' E 122°19'0 0.3
2018-May-20 09:23N 37°32' E 122°19'0 0.1
2018-May-20 08:56N 37°32' E 122°19'0 0.1
2018-May-20 08:29N 37°32' E 122°19'0 0.0
2018-May-20 07:53N 37°32' E 122°19'0 0.0
2018-May-20 07:29N 37°32' E 122°19'0 0.0
2018-May-20 06:59N 37°32' E 122°19'0 0.0
2018-May-19 23:47N 37°32' E 122°19'0 0.0
2018-May-19 23:26N 37°32' E 122°19'0 0.0
2018-May-19 22:56N 37°32' E 122°19'0 0.3
2018-May-19 22:17N 37°32' E 122°19'0 0.0
2018-May-19 18:14N 37°32' E 122°19'0 0.0
2018-May-19 17:56N 37°32' E 122°19'0 0.0
2018-May-19 17:29N 37°32' E 122°19'  
Track history (hours):
 
Tides and Currents Weather Stations Pressure Air Temp Water Temp Dewpoint Dewpoint Depression Visibility Wind Speed Wind Dir Waves Ship Positions

Cemtex Fortune

Last reported at 2018-May-26 00:34 UTC. Time now 2018-May-26 04:27 UTC.
Position N 31°19' E 121°46'.

Length 228 m; draft 7.5 m.

Type: Cargo ship. MMSI: 563295000.

Date/timePositionNaut miles runAvg speedWind from/ knotsBaromVisibWave heightAir tempDewpointWater temp
2018-May-26 00:34N 31°19' E 121°46'113.2
2018-May-26 00:29N 31°18' E 121°47'713.7
2018-May-26 00:00N 31°16' E 121°54'714.0
2018-May-25 23:29N 31°15' E 122°02'612.0
2018-May-25 22:58N 31°12' E 122°09'610.9
2018-May-25 22:25N 31°09' E 122°14'384 9.0
2018-May-24 03:34N 37°33' E 122°21'312.0
2018-May-24 03:21N 37°31' E 122°19'3 9.7
2018-May-24 03:00N 37°30' E 122°15'4 7.0
2018-May-24 02:29N 37°27' E 122°11'0 0.1
2018-May-24 01:59N 37°27' E 122°11'0 0.0
2018-May-24 01:17N 37°27' E 122°11'0 0.0
2018-May-24 00:35N 37°27' E 122°11'0 0.0
2018-May-24 00:23N 37°27' E 122°11'0 0.0
2018-May-23 23:59N 37°27' E 122°11'0 0.0
2018-May-23 23:29N 37°27' E 122°11'0 0.0
2018-May-23 22:59N 37°27' E 122°11'0 0.0
2018-May-23 22:29N 37°27' E 122°11'0 0.0
2018-May-23 21:59N 37°27' E 122°11'0 0.0
2018-May-23 21:26N 37°27' E 122°11'0 0.0
2018-May-23 20:59N 37°27' E 122°11'0 0.0
2018-May-23 20:29N 37°27' E 122°11'0 0.0
2018-May-23 19:59N 37°27' E 122°11'0 0.0
2018-May-23 19:26N 37°27' E 122°11'0 0.0
2018-May-23 18:47N 37°27' E 122°11'0 0.0
2018-May-23 18:29N 37°27' E 122°11'0 0.0
2018-May-23 15:35N 37°27' E 122°11'0 0.0
2018-May-23 15:08N 37°27' E 122°11'0 0.0
2018-May-23 14:59N 37°27' E 122°11'0 0.0
2018-May-23 14:29N 37°27' E 122°11'0 0.0
2018-May-23 13:47N 37°27' E 122°11'0 0.0
2018-May-23 13:20N 37°27' E 122°11'0 0.0
2018-May-23 12:56N 37°27' E 122°11'0 0.0
2018-May-23 12:26N 37°27' E 122°11'0 0.0
2018-May-23 11:14N 37°27' E 122°11'0 0.0
2018-May-23 10:47N 37°27' E 122°11'0 0.0
2018-May-23 09:59N 37°27' E 122°11'0 0.0
2018-May-23 09:29N 37°27' E 122°11'0 0.0
2018-May-23 08:56N 37°27' E 122°11'0 0.0
2018-May-23 08:29N 37°27' E 122°11'0 0.0
2018-May-23 07:59N 37°27' E 122°11'0 0.0
2018-May-23 07:29N 37°27' E 122°11'0 0.0
2018-May-23 06:56N 37°27' E 122°11'0 0.0
2018-May-23 00:38N 37°27' E 122°11'0 0.0
2018-May-23 00:29N 37°27' E 122°11'0 0.0
2018-May-22 23:08N 37°27' E 122°11'0 0.0
2018-May-22 22:56N 37°27' E 122°11'0 0.0
2018-May-22 22:26N 37°27' E 122°11'0 0.0
2018-May-22 21:50N 37°27' E 122°11'0 0.0
2018-May-22 21:08N 37°27' E 122°11'0 0.0
2018-May-22 20:44N 37°27' E 122°11'0 0.0
2018-May-22 18:50N 37°27' E 122°11'0 0.0
2018-May-22 18:29N 37°27' E 122°11'0 0.0
2018-May-22 17:56N 37°27' E 122°11'0 0.0
2018-May-22 17:29N 37°27' E 122°11'0 0.0
2018-May-22 16:59N 37°27' E 122°11'0 0.0
2018-May-22 16:17N 37°27' E 122°11'0 0.0
2018-May-22 15:44N 37°27' E 122°11'0 0.0
2018-May-22 12:02N 37°27' E 122°11'0 0.0
2018-May-22 11:56N 37°27' E 122°11'0 0.0
2018-May-22 10:50N 37°27' E 122°11'0 0.0
2018-May-22 10:29N 37°27' E 122°11'0 0.0
2018-May-22 09:56N 37°27' E 122°11'0 0.0
2018-May-22 09:26N 37°27' E 122°11'0 0.0
2018-May-22 08:50N 37°27' E 122°11'0 0.0
2018-May-22 08:20N 37°27' E 122°11'0 0.0
2018-May-22 07:56N 37°27' E 122°11'0 0.0
2018-May-22 07:26N 37°27' E 122°11'0 0.0
2018-May-22 06:47N 37°27' E 122°11'0 0.0
2018-May-22 06:26N 37°27' E 122°11'0 0.0
2018-May-22 05:32N 37°27' E 122°11'0 0.0
2018-May-22 05:20N 37°27' E 122°11'0 0.0
2018-May-22 04:56N 37°27' E 122°11'0 0.0
2018-May-22 04:26N 37°27' E 122°11'0 0.0
2018-May-22 03:56N 37°27' E 122°11'0 0.1
2018-May-22 03:30N 37°27' E 122°11'1 2.5
2018-May-22 02:58N 37°28' E 122°13'4 6.7
2018-May-22 02:24N 37°31' E 122°16'2 4.5
2018-May-22 01:54N 37°32' E 122°19'0 0.2
2018-May-22 01:29N 37°32' E 122°19'0 0.2
2018-May-22 00:56N 37°32' E 122°19'0 0.0
2018-May-21 21:14N 37°32' E 122°19'0 0.0
2018-May-21 20:23N 37°32' E 122°19'0 0.0
2018-May-21 19:59N 37°32' E 122°19'0 0.0
2018-May-21 19:11N 37°32' E 122°19'0 0.0
2018-May-21 18:56N 37°32' E 122°19'0 0.1
2018-May-21 18:23N 37°32' E 122°19'0 0.1
2018-May-21 17:59N 37°32' E 122°19'0 0.0
2018-May-21 08:53N 37°32' E 122°19'0 0.0
2018-May-21 04:05N 37°32' E 122°19'0 0.0
2018-May-21 03:44N 37°32' E 122°19'0 0.0
2018-May-21 03:29N 37°32' E 122°19'0 0.0
2018-May-21 02:56N 37°32' E 122°19'0 0.0
2018-May-21 02:23N 37°32' E 122°19'0 0.0
2018-May-21 01:08N 37°32' E 122°19'0 0.0
2018-May-21 00:50N 37°32' E 122°19'0 0.2
2018-May-21 00:17N 37°32' E 122°19'0 0.2
2018-May-20 23:59N 37°32' E 122°19'0 0.2
2018-May-20 23:23N 37°32' E 122°19'0 0.0
2018-May-20 22:56N 37°32' E 122°19'0 0.0
2018-May-20 22:26N 37°32' E 122°19'0 0.0
2018-May-20 21:59N 37°32' E 122°19'0 0.1
2018-May-20 21:23N 37°32' E 122°19'0 0.0
2018-May-20 20:56N 37°32' E 122°19'0 0.0
2018-May-20 19:05N 37°32' E 122°19'0 0.0
2018-May-20 18:59N 37°32' E 122°19'0 0.0
2018-May-20 18:29N 37°32' E 122°19'0 0.1
2018-May-20 17:59N 37°32' E 122°19'0 0.0
2018-May-20 17:23N 37°32' E 122°19'0 0.2
2018-May-20 16:59N 37°32' E 122°19'0 0.0
2018-May-20 09:47N 37°32' E 122°19'0 0.3
2018-May-20 09:23N 37°32' E 122°19'0 0.1
2018-May-20 08:56N 37°32' E 122°19'0 0.1
2018-May-20 08:29N 37°32' E 122°19'0 0.0
2018-May-20 07:53N 37°32' E 122°19'0 0.0
2018-May-20 07:29N 37°32' E 122°19'0 0.0
2018-May-20 06:59N 37°32' E 122°19'0 0.0
2018-May-19 23:47N 37°32' E 122°19'0 0.0
2018-May-19 23:26N 37°32' E 122°19'0 0.0
2018-May-19 22:56N 37°32' E 122°19'0 0.3
2018-May-19 22:17N 37°32' E 122°19'0 0.0
2018-May-19 18:14N 37°32' E 122°19'0 0.0
2018-May-19 17:56N 37°32' E 122°19'0 0.0
2018-May-19 17:29N 37°32' E 122°19'  

Dump ship's entire track history